sensor_id;sensor_type;location;lat;lon;timestamp;temperature;humidity
71436;SHT31;59251;51.326;12.370;2023-04-23T00:01:05;15.35;77.43
71436;SHT31;59251;51.326;12.370;2023-04-23T00:03:31;15.38;77.10
71436;SHT31;59251;51.326;12.370;2023-04-23T00:05:58;15.36;77.13
71436;SHT31;59251;51.326;12.370;2023-04-23T00:08:25;15.32;73.85
71436;SHT31;59251;51.326;12.370;2023-04-23T00:10:51;15.39;73.94
71436;SHT31;59251;51.326;12.370;2023-04-23T00:13:17;15.39;72.94
71436;SHT31;59251;51.326;12.370;2023-04-23T00:15:42;15.39;72.83
71436;SHT31;59251;51.326;12.370;2023-04-23T00:18:08;15.43;72.25
71436;SHT31;59251;51.326;12.370;2023-04-23T00:20:34;15.46;72.69
71436;SHT31;59251;51.326;12.370;2023-04-23T00:23:00;15.36;72.15
71436;SHT31;59251;51.326;12.370;2023-04-23T00:25:25;15.36;73.50
71436;SHT31;59251;51.326;12.370;2023-04-23T00:27:50;15.32;74.80
71436;SHT31;59251;51.326;12.370;2023-04-23T00:30:16;15.31;73.59
71436;SHT31;59251;51.326;12.370;2023-04-23T00:32:42;15.28;74.26
71436;SHT31;59251;51.326;12.370;2023-04-23T00:35:08;15.29;74.70
71436;SHT31;59251;51.326;12.370;2023-04-23T00:37:34;15.24;74.84
71436;SHT31;59251;51.326;12.370;2023-04-23T00:39:59;15.22;74.46
71436;SHT31;59251;51.326;12.370;2023-04-23T00:42:25;15.21;74.58
71436;SHT31;59251;51.326;12.370;2023-04-23T00:44:51;15.11;75.42
71436;SHT31;59251;51.326;12.370;2023-04-23T00:47:16;15.15;74.82
71436;SHT31;59251;51.326;12.370;2023-04-23T00:49:42;15.07;75.03
71436;SHT31;59251;51.326;12.370;2023-04-23T00:52:08;15.05;75.09
71436;SHT31;59251;51.326;12.370;2023-04-23T00:54:33;14.94;76.61
71436;SHT31;59251;51.326;12.370;2023-04-23T00:56:59;14.88;77.31
71436;SHT31;59251;51.326;12.370;2023-04-23T00:59:25;14.81;77.77
71436;SHT31;59251;51.326;12.370;2023-04-23T01:01:51;14.69;78.66
71436;SHT31;59251;51.326;12.370;2023-04-23T01:04:18;14.60;80.44
71436;SHT31;59251;51.326;12.370;2023-04-23T01:06:44;14.57;80.90
71436;SHT31;59251;51.326;12.370;2023-04-23T01:09:11;14.49;80.09
71436;SHT31;59251;51.326;12.370;2023-04-23T01:11:41;14.42;81.09
71436;SHT31;59251;51.326;12.370;2023-04-23T01:14:08;14.36;83.11
71436;SHT31;59251;51.326;12.370;2023-04-23T01:16:35;14.37;81.31
71436;SHT31;59251;51.326;12.370;2023-04-23T01:19:01;14.28;83.59
71436;SHT31;59251;51.326;12.370;2023-04-23T01:21:28;14.29;82.87
71436;SHT31;59251;51.326;12.370;2023-04-23T01:23:54;14.22;84.37
71436;SHT31;59251;51.326;12.370;2023-04-23T01:26:21;14.25;84.08
71436;SHT31;59251;51.326;12.370;2023-04-23T01:28:47;14.30;83.62
71436;SHT31;59251;51.326;12.370;2023-04-23T01:31:13;14.32;84.09
71436;SHT31;59251;51.326;12.370;2023-04-23T01:33:42;14.46;83.82
71436;SHT31;59251;51.326;12.370;2023-04-23T01:36:08;14.39;84.62
71436;SHT31;59251;51.326;12.370;2023-04-23T01:38:37;14.52;83.92
71436;SHT31;59251;51.326;12.370;2023-04-23T01:41:03;14.45;83.78
71436;SHT31;59251;51.326;12.370;2023-04-23T01:43:30;14.46;85.00
71436;SHT31;59251;51.326;12.370;2023-04-23T01:45:56;14.39;85.42
71436;SHT31;59251;51.326;12.370;2023-04-23T01:48:23;14.33;84.21
71436;SHT31;59251;51.326;12.370;2023-04-23T01:50:49;14.28;83.76
71436;SHT31;59251;51.326;12.370;2023-04-23T01:53:15;14.30;85.60
71436;SHT31;59251;51.326;12.370;2023-04-23T01:55:42;14.33;84.94
71436;SHT31;59251;51.326;12.370;2023-04-23T01:58:09;14.37;85.02
71436;SHT31;59251;51.326;12.370;2023-04-23T02:00:34;14.26;84.92
71436;SHT31;59251;51.326;12.370;2023-04-23T02:02:59;14.45;85.25
71436;SHT31;59251;51.326;12.370;2023-04-23T02:05:27;14.32;85.53
71436;SHT31;59251;51.326;12.370;2023-04-23T02:07:53;14.30;84.62
71436;SHT31;59251;51.326;12.370;2023-04-23T02:10:18;14.36;84.66
71436;SHT31;59251;51.326;12.370;2023-04-23T02:12:45;14.37;84.90
71436;SHT31;59251;51.326;12.370;2023-04-23T02:15:12;14.32;85.78
71436;SHT31;59251;51.326;12.370;2023-04-23T02:17:37;14.28;87.83
71436;SHT31;59251;51.326;12.370;2023-04-23T02:20:05;14.24;86.83
71436;SHT31;59251;51.326;12.370;2023-04-23T02:22:31;14.05;88.65
71436;SHT31;59251;51.326;12.370;2023-04-23T02:24:56;14.02;90.09
71436;SHT31;59251;51.326;12.370;2023-04-23T02:27:22;14.00;90.78
71436;SHT31;59251;51.326;12.370;2023-04-23T02:29:48;14.05;89.90
71436;SHT31;59251;51.326;12.370;2023-04-23T02:32:14;13.97;89.66
71436;SHT31;59251;51.326;12.370;2023-04-23T02:34:39;13.91;91.07
71436;SHT31;59251;51.326;12.370;2023-04-23T02:37:05;13.87;90.59
71436;SHT31;59251;51.326;12.370;2023-04-23T02:39:30;13.87;89.51
71436;SHT31;59251;51.326;12.370;2023-04-23T02:41:56;13.95;87.70
71436;SHT31;59251;51.326;12.370;2023-04-23T02:44:25;13.97;86.95
71436;SHT31;59251;51.326;12.370;2023-04-23T02:46:51;14.00;86.78
71436;SHT31;59251;51.326;12.370;2023-04-23T02:49:17;14.00;86.61
71436;SHT31;59251;51.326;12.370;2023-04-23T02:51:44;13.97;86.59
71436;SHT31;59251;51.326;12.370;2023-04-23T02:54:10;14.14;86.54
71436;SHT31;59251;51.326;12.370;2023-04-23T02:56:36;14.05;86.49
71436;SHT31;59251;51.326;12.370;2023-04-23T02:59:01;14.12;86.69
71436;SHT31;59251;51.326;12.370;2023-04-23T03:01:26;14.06;86.39
71436;SHT31;59251;51.326;12.370;2023-04-23T03:03:52;14.02;85.62
71436;SHT31;59251;51.326;12.370;2023-04-23T03:06:17;14.08;85.38
71436;SHT31;59251;51.326;12.370;2023-04-23T03:08:43;14.16;85.41
71436;SHT31;59251;51.326;12.370;2023-04-23T03:11:08;14.08;85.29
71436;SHT31;59251;51.326;12.370;2023-04-23T03:13:34;14.06;86.14
71436;SHT31;59251;51.326;12.370;2023-04-23T03:15:59;14.04;86.01
71436;SHT31;59251;51.326;12.370;2023-04-23T03:18:25;14.08;86.36
71436;SHT31;59251;51.326;12.370;2023-04-23T03:20:50;14.06;85.59
71436;SHT31;59251;51.326;12.370;2023-04-23T03:23:16;14.06;85.75
71436;SHT31;59251;51.326;12.370;2023-04-23T03:25:41;14.04;85.61
71436;SHT31;59251;51.326;12.370;2023-04-23T03:28:06;14.04;85.96
71436;SHT31;59251;51.326;12.370;2023-04-23T03:30:32;14.09;85.71
71436;SHT31;59251;51.326;12.370;2023-04-23T03:32:58;14.11;85.33
71436;SHT31;59251;51.326;12.370;2023-04-23T03:35:24;14.09;86.34
71436;SHT31;59251;51.326;12.370;2023-04-23T03:37:50;14.06;85.93
71436;SHT31;59251;51.326;12.370;2023-04-23T03:40:16;14.05;85.53
71436;SHT31;59251;51.326;12.370;2023-04-23T03:42:41;14.08;85.41
71436;SHT31;59251;51.326;12.370;2023-04-23T03:45:07;14.02;85.71
71436;SHT31;59251;51.326;12.370;2023-04-23T03:47:32;14.08;87.30
71436;SHT31;59251;51.326;12.370;2023-04-23T03:49:58;13.97;86.49
71436;SHT31;59251;51.326;12.370;2023-04-23T03:52:23;13.95;86.56
71436;SHT31;59251;51.326;12.370;2023-04-23T03:54:49;13.84;87.69
71436;SHT31;59251;51.326;12.370;2023-04-23T03:57:14;13.85;87.72
71436;SHT31;59251;51.326;12.370;2023-04-23T03:59:40;13.77;88.15
71436;SHT31;59251;51.326;12.370;2023-04-23T04:02:05;13.71;88.64
71436;SHT31;59251;51.326;12.370;2023-04-23T04:04:31;13.71;87.98
71436;SHT31;59251;51.326;12.370;2023-04-23T04:06:58;13.73;89.72
71436;SHT31;59251;51.326;12.370;2023-04-23T04:09:27;13.64;90.17
71436;SHT31;59251;51.326;12.370;2023-04-23T04:11:53;13.63;91.26
71436;SHT31;59251;51.326;12.370;2023-04-23T04:14:18;13.53;90.16
71436;SHT31;59251;51.326;12.370;2023-04-23T04:16:44;13.57;89.74
71436;SHT31;59251;51.326;12.370;2023-04-23T04:19:09;13.56;90.33
71436;SHT31;59251;51.326;12.370;2023-04-23T04:21:35;13.56;89.36
71436;SHT31;59251;51.326;12.370;2023-04-23T04:24:01;13.56;91.09
71436;SHT31;59251;51.326;12.370;2023-04-23T04:26:27;13.57;90.21
71436;SHT31;59251;51.326;12.370;2023-04-23T04:28:53;13.63;89.65
71436;SHT31;59251;51.326;12.370;2023-04-23T04:31:18;13.58;89.94
71436;SHT31;59251;51.326;12.370;2023-04-23T04:33:47;13.66;89.11
71436;SHT31;59251;51.326;12.370;2023-04-23T04:36:13;13.63;88.97
71436;SHT31;59251;51.326;12.370;2023-04-23T04:38:39;13.70;89.07
71436;SHT31;59251;51.326;12.370;2023-04-23T04:41:04;13.71;89.23
71436;SHT31;59251;51.326;12.370;2023-04-23T04:43:30;13.67;90.17
71436;SHT31;59251;51.326;12.370;2023-04-23T04:45:57;13.74;90.38
71436;SHT31;59251;51.326;12.370;2023-04-23T04:48:23;13.70;90.76
71436;SHT31;59251;51.326;12.370;2023-04-23T04:50:49;13.60;91.09
71436;SHT31;59251;51.326;12.370;2023-04-23T04:53:14;13.61;91.04
71436;SHT31;59251;51.326;12.370;2023-04-23T04:55:40;13.61;90.12
71436;SHT31;59251;51.326;12.370;2023-04-23T04:58:05;13.60;91.38
71436;SHT31;59251;51.326;12.370;2023-04-23T05:00:31;13.58;90.11
71436;SHT31;59251;51.326;12.370;2023-04-23T05:02:57;13.60;90.87
71436;SHT31;59251;51.326;12.370;2023-04-23T05:05:23;13.54;91.23
71436;SHT31;59251;51.326;12.370;2023-04-23T05:07:49;13.64;91.65
71436;SHT31;59251;51.326;12.370;2023-04-23T05:10:15;13.56;92.49
71436;SHT31;59251;51.326;12.370;2023-04-23T05:12:43;13.51;92.34
71436;SHT31;59251;51.326;12.370;2023-04-23T05:15:10;13.53;91.82
71436;SHT31;59251;51.326;12.370;2023-04-23T05:17:40;13.46;91.53
71436;SHT31;59251;51.326;12.370;2023-04-23T05:20:06;13.47;91.29
71436;SHT31;59251;51.326;12.370;2023-04-23T05:22:34;13.67;89.38
71436;SHT31;59251;51.326;12.370;2023-04-23T05:25:00;13.61;90.09
71436;SHT31;59251;51.326;12.370;2023-04-23T05:27:25;13.78;88.96
71436;SHT31;59251;51.326;12.370;2023-04-23T05:29:51;13.89;88.55
71436;SHT31;59251;51.326;12.370;2023-04-23T05:32:17;13.79;88.49
71436;SHT31;59251;51.326;12.370;2023-04-23T05:34:42;13.74;88.56
71436;SHT31;59251;51.326;12.370;2023-04-23T05:37:08;13.79;87.97
71436;SHT31;59251;51.326;12.370;2023-04-23T05:39:33;13.88;87.02
71436;SHT31;59251;51.326;12.370;2023-04-23T05:41:58;13.91;87.76
71436;SHT31;59251;51.326;12.370;2023-04-23T05:44:24;13.97;87.46
71436;SHT31;59251;51.326;12.370;2023-04-23T05:46:49;14.05;87.01
71436;SHT31;59251;51.326;12.370;2023-04-23T05:49:14;14.11;86.53
71436;SHT31;59251;51.326;12.370;2023-04-23T05:51:40;14.19;86.19
71436;SHT31;59251;51.326;12.370;2023-04-23T05:54:05;14.18;85.97
71436;SHT31;59251;51.326;12.370;2023-04-23T05:56:31;14.29;85.93
71436;SHT31;59251;51.326;12.370;2023-04-23T05:58:56;14.37;85.75
71436;SHT31;59251;51.326;12.370;2023-04-23T06:01:22;14.37;85.90
71436;SHT31;59251;51.326;12.370;2023-04-23T06:03:47;14.33;86.24
71436;SHT31;59251;51.326;12.370;2023-04-23T06:06:13;14.42;85.74
71436;SHT31;59251;51.326;12.370;2023-04-23T06:08:38;14.37;85.79
71436;SHT31;59251;51.326;12.370;2023-04-23T06:11:05;14.43;85.94
71436;SHT31;59251;51.326;12.370;2023-04-23T06:13:30;14.43;86.44
71436;SHT31;59251;51.326;12.370;2023-04-23T06:15:56;14.30;86.99
71436;SHT31;59251;51.326;12.370;2023-04-23T06:18:22;14.37;86.93
71436;SHT31;59251;51.326;12.370;2023-04-23T06:20:47;14.45;87.04
71436;SHT31;59251;51.326;12.370;2023-04-23T06:23:13;14.46;86.96
71436;SHT31;59251;51.326;12.370;2023-04-23T06:25:39;14.53;86.82
71436;SHT31;59251;51.326;12.370;2023-04-23T06:28:05;14.56;86.29
71436;SHT31;59251;51.326;12.370;2023-04-23T06:30:30;14.67;86.65
71436;SHT31;59251;51.326;12.370;2023-04-23T06:32:56;14.67;86.53
71436;SHT31;59251;51.326;12.370;2023-04-23T06:35:21;14.63;86.65
71436;SHT31;59251;51.326;12.370;2023-04-23T06:37:47;14.69;87.17
71436;SHT31;59251;51.326;12.370;2023-04-23T06:40:12;14.57;87.42
71436;SHT31;59251;51.326;12.370;2023-04-23T06:42:38;14.50;88.20
71436;SHT31;59251;51.326;12.370;2023-04-23T06:45:04;14.56;87.72
71436;SHT31;59251;51.326;12.370;2023-04-23T06:47:30;14.36;88.31
71436;SHT31;59251;51.326;12.370;2023-04-23T06:49:56;14.49;88.05
71436;SHT31;59251;51.326;12.370;2023-04-23T06:52:22;14.50;88.07
71436;SHT31;59251;51.326;12.370;2023-04-23T06:54:47;14.59;88.22
71436;SHT31;59251;51.326;12.370;2023-04-23T06:57:13;14.69;87.86
71436;SHT31;59251;51.326;12.370;2023-04-23T06:59:38;14.73;87.25
71436;SHT31;59251;51.326;12.370;2023-04-23T07:02:03;14.72;87.72
71436;SHT31;59251;51.326;12.370;2023-04-23T07:04:29;14.81;87.38
71436;SHT31;59251;51.326;12.370;2023-04-23T07:06:54;14.69;87.71
71436;SHT31;59251;51.326;12.370;2023-04-23T07:09:20;14.64;87.75
71436;SHT31;59251;51.326;12.370;2023-04-23T07:11:45;14.64;88.21
71436;SHT31;59251;51.326;12.370;2023-04-23T07:14:10;14.55;88.12
71436;SHT31;59251;51.326;12.370;2023-04-23T07:16:36;14.53;88.30
71436;SHT31;59251;51.326;12.370;2023-04-23T07:19:01;14.43;89.14
71436;SHT31;59251;51.326;12.370;2023-04-23T07:21:27;14.46;88.95
71436;SHT31;59251;51.326;12.370;2023-04-23T07:23:56;14.46;89.01
71436;SHT31;59251;51.326;12.370;2023-04-23T07:26:24;14.32;90.48
71436;SHT31;59251;51.326;12.370;2023-04-23T07:28:50;14.18;91.60
71436;SHT31;59251;51.326;12.370;2023-04-23T07:31:16;13.98;92.86
71436;SHT31;59251;51.326;12.370;2023-04-23T07:33:41;13.91;92.95
71436;SHT31;59251;51.326;12.370;2023-04-23T07:36:07;13.84;93.40
71436;SHT31;59251;51.326;12.370;2023-04-23T07:38:32;13.91;92.83
71436;SHT31;59251;51.326;12.370;2023-04-23T07:40:57;13.91;92.48
71436;SHT31;59251;51.326;12.370;2023-04-23T07:43:23;13.89;92.50
71436;SHT31;59251;51.326;12.370;2023-04-23T07:45:48;13.89;92.69
71436;SHT31;59251;51.326;12.370;2023-04-23T07:48:14;13.97;92.78
71436;SHT31;59251;51.326;12.370;2023-04-23T07:50:39;13.91;92.33
71436;SHT31;59251;51.326;12.370;2023-04-23T07:53:05;14.00;92.53
71436;SHT31;59251;51.326;12.370;2023-04-23T07:55:30;13.92;93.74
71436;SHT31;59251;51.326;12.370;2023-04-23T07:57:55;14.02;93.18
71436;SHT31;59251;51.326;12.370;2023-04-23T08:00:21;14.04;92.72
71436;SHT31;59251;51.326;12.370;2023-04-23T08:02:46;14.24;92.23
71436;SHT31;59251;51.326;12.370;2023-04-23T08:05:11;14.35;92.19
71436;SHT31;59251;51.326;12.370;2023-04-23T08:07:37;14.56;91.31
71436;SHT31;59251;51.326;12.370;2023-04-23T08:10:02;14.79;90.13
71436;SHT31;59251;51.326;12.370;2023-04-23T08:12:30;15.02;89.62
71436;SHT31;59251;51.326;12.370;2023-04-23T08:14:58;14.87;89.48
71436;SHT31;59251;51.326;12.370;2023-04-23T08:17:24;14.66;89.58
71436;SHT31;59251;51.326;12.370;2023-04-23T08:19:49;14.50;90.52
71436;SHT31;59251;51.326;12.370;2023-04-23T08:22:14;14.32;91.69
71436;SHT31;59251;51.326;12.370;2023-04-23T08:24:42;14.15;93.95
71436;SHT31;59251;51.326;12.370;2023-04-23T08:27:07;13.67;93.19
71436;SHT31;59251;51.326;12.370;2023-04-23T08:29:33;13.78;93.04
71436;SHT31;59251;51.326;12.370;2023-04-23T08:31:59;13.75;92.46
71436;SHT31;59251;51.326;12.370;2023-04-23T08:34:24;13.73;92.83
71436;SHT31;59251;51.326;12.370;2023-04-23T08:36:50;13.66;91.32
71436;SHT31;59251;51.326;12.370;2023-04-23T08:39:15;13.92;90.62
71436;SHT31;59251;51.326;12.370;2023-04-23T08:41:41;14.04;90.40
71436;SHT31;59251;51.326;12.370;2023-04-23T08:44:22;14.16;89.87
71436;SHT31;59251;51.326;12.370;2023-04-23T08:46:49;14.35;86.03
71436;SHT31;59251;51.326;12.370;2023-04-23T08:49:16;14.46;86.52
71436;SHT31;59251;51.326;12.370;2023-04-23T08:51:48;14.64;84.31
71436;SHT31;59251;51.326;12.370;2023-04-23T08:54:21;14.59;85.01
71436;SHT31;59251;51.326;12.370;2023-04-23T08:56:50;14.88;84.60
71436;SHT31;59251;51.326;12.370;2023-04-23T08:59:17;15.07;82.28
71436;SHT31;59251;51.326;12.370;2023-04-23T09:01:42;15.11;81.52
71436;SHT31;59251;51.326;12.370;2023-04-23T09:04:08;15.42;81.29
71436;SHT31;59251;51.326;12.370;2023-04-23T09:06:35;15.74;80.03
71436;SHT31;59251;51.326;12.370;2023-04-23T09:09:00;15.77;79.57
71436;SHT31;59251;51.326;12.370;2023-04-23T09:11:26;15.76;79.20
71436;SHT31;59251;51.326;12.370;2023-04-23T09:13:55;15.70;77.83
71436;SHT31;59251;51.326;12.370;2023-04-23T09:16:20;15.76;76.27
71436;SHT31;59251;51.326;12.370;2023-04-23T09:18:46;15.63;76.44
71436;SHT31;59251;51.326;12.370;2023-04-23T09:21:12;15.79;76.21
71436;SHT31;59251;51.326;12.370;2023-04-23T09:23:38;15.90;76.00
71436;SHT31;59251;51.326;12.370;2023-04-23T09:26:05;15.85;76.62
71436;SHT31;59251;51.326;12.370;2023-04-23T09:28:35;16.06;75.92
71436;SHT31;59251;51.326;12.370;2023-04-23T09:31:01;16.07;76.59
71436;SHT31;59251;51.326;12.370;2023-04-23T09:33:27;15.89;76.06
71436;SHT31;59251;51.326;12.370;2023-04-23T09:35:53;15.97;75.72
71436;SHT31;59251;51.326;12.370;2023-04-23T09:38:18;16.06;74.85
71436;SHT31;59251;51.326;12.370;2023-04-23T09:40:44;16.20;74.62
71436;SHT31;59251;51.326;12.370;2023-04-23T09:43:10;16.27;74.71
71436;SHT31;59251;51.326;12.370;2023-04-23T09:45:35;16.36;73.41
71436;SHT31;59251;51.326;12.370;2023-04-23T09:48:01;16.42;72.33
71436;SHT31;59251;51.326;12.370;2023-04-23T09:50:37;16.61;72.09
71436;SHT31;59251;51.326;12.370;2023-04-23T09:53:04;16.89;71.91
71436;SHT31;59251;51.326;12.370;2023-04-23T09:55:37;17.06;70.70
71436;SHT31;59251;51.326;12.370;2023-04-23T09:58:04;16.87;70.24
71436;SHT31;59251;51.326;12.370;2023-04-23T10:00:37;17.00;70.44
71436;SHT31;59251;51.326;12.370;2023-04-23T10:03:03;17.07;69.16
71436;SHT31;59251;51.326;12.370;2023-04-23T10:05:31;16.89;70.23
71436;SHT31;59251;51.326;12.370;2023-04-23T10:07:56;16.93;70.29
71436;SHT31;59251;51.326;12.370;2023-04-23T10:10:23;17.00;69.02
71436;SHT31;59251;51.326;12.370;2023-04-23T10:12:51;17.13;68.65
71436;SHT31;59251;51.326;12.370;2023-04-23T10:15:16;17.24;68.29
71436;SHT31;59251;51.326;12.370;2023-04-23T10:17:42;17.07;67.39
71436;SHT31;59251;51.326;12.370;2023-04-23T10:20:08;17.24;68.04
71436;SHT31;59251;51.326;12.370;2023-04-23T10:22:35;17.19;66.91
71436;SHT31;59251;51.326;12.370;2023-04-23T10:25:08;17.12;67.26
71436;SHT31;59251;51.326;12.370;2023-04-23T10:27:40;16.93;66.28
71436;SHT31;59251;51.326;12.370;2023-04-23T10:30:08;16.76;66.29
71436;SHT31;59251;51.326;12.370;2023-04-23T10:32:35;17.02;65.15
71436;SHT31;59251;51.326;12.370;2023-04-23T10:35:00;17.32;64.61
71436;SHT31;59251;51.326;12.370;2023-04-23T10:37:27;17.35;62.47
71436;SHT31;59251;51.326;12.370;2023-04-23T10:39:54;17.54;61.92
71436;SHT31;59251;51.326;12.370;2023-04-23T10:42:21;17.58;61.93
71436;SHT31;59251;51.326;12.370;2023-04-23T10:44:47;17.48;62.66
71436;SHT31;59251;51.326;12.370;2023-04-23T10:47:16;17.55;62.94
71436;SHT31;59251;51.326;12.370;2023-04-23T10:49:42;17.54;63.24
71436;SHT31;59251;51.326;12.370;2023-04-23T10:52:10;17.85;62.75
71436;SHT31;59251;51.326;12.370;2023-04-23T10:54:39;18.19;63.03
71436;SHT31;59251;51.326;12.370;2023-04-23T10:57:06;18.26;62.94
71436;SHT31;59251;51.326;12.370;2023-04-23T10:59:34;18.25;62.96
71436;SHT31;59251;51.326;12.370;2023-04-23T11:02:11;18.33;62.19
71436;SHT31;59251;51.326;12.370;2023-04-23T11:04:52;18.41;62.85
71436;SHT31;59251;51.326;12.370;2023-04-23T11:07:18;18.64;62.19
71436;SHT31;59251;51.326;12.370;2023-04-23T11:09:48;18.76;60.62
71436;SHT31;59251;51.326;12.370;2023-04-23T11:14:48;18.94;62.22
71436;SHT31;59251;51.326;12.370;2023-04-23T11:17:16;19.15;61.88
71436;SHT31;59251;51.326;12.370;2023-04-23T11:20:11;19.02;59.97
71436;SHT31;59251;51.326;12.370;2023-04-23T11:22:40;18.85;60.39
71436;SHT31;59251;51.326;12.370;2023-04-23T11:25:11;19.05;60.53
71436;SHT31;59251;51.326;12.370;2023-04-23T11:27:39;18.89;60.91
71436;SHT31;59251;51.326;12.370;2023-04-23T11:30:09;18.76;60.52
71436;SHT31;59251;51.326;12.370;2023-04-23T11:32:36;18.96;59.32
71436;SHT31;59251;51.326;12.370;2023-04-23T11:35:01;19.70;58.70
71436;SHT31;59251;51.326;12.370;2023-04-23T11:37:29;20.45;55.70
71436;SHT31;59251;51.326;12.370;2023-04-23T11:39:54;20.83;54.70
71436;SHT31;59251;51.326;12.370;2023-04-23T11:42:20;20.79;53.62
71436;SHT31;59251;51.326;12.370;2023-04-23T11:44:46;19.92;55.10
71436;SHT31;59251;51.326;12.370;2023-04-23T11:47:14;20.69;53.28
71436;SHT31;59251;51.326;12.370;2023-04-23T11:49:41;21.45;51.27
71436;SHT31;59251;51.326;12.370;2023-04-23T11:52:08;21.65;50.74
71436;SHT31;59251;51.326;12.370;2023-04-23T11:54:34;21.70;50.98
71436;SHT31;59251;51.326;12.370;2023-04-23T11:57:00;21.14;50.15
71436;SHT31;59251;51.326;12.370;2023-04-23T11:59:26;21.66;50.75
71436;SHT31;59251;51.326;12.370;2023-04-23T12:01:54;21.56;50.20
71436;SHT31;59251;51.326;12.370;2023-04-23T12:04:22;21.66;50.14
71436;SHT31;59251;51.326;12.370;2023-04-23T12:06:49;22.14;48.78
71436;SHT31;59251;51.326;12.370;2023-04-23T12:09:15;22.61;47.95
71436;SHT31;59251;51.326;12.370;2023-04-23T12:11:42;22.86;47.42
71436;SHT31;59251;51.326;12.370;2023-04-23T12:14:09;22.75;47.02
71436;SHT31;59251;51.326;12.370;2023-04-23T12:16:38;23.07;46.83
71436;SHT31;59251;51.326;12.370;2023-04-23T12:21:46;22.95;46.39
71436;SHT31;59251;51.326;12.370;2023-04-23T12:24:12;23.33;45.36
71436;SHT31;59251;51.326;12.370;2023-04-23T12:26:37;23.54;45.18
71436;SHT31;59251;51.326;12.370;2023-04-23T12:29:02;23.57;45.97
71436;SHT31;59251;51.326;12.370;2023-04-23T12:31:28;23.64;44.69
71436;SHT31;59251;51.326;12.370;2023-04-23T12:36:26;24.25;44.15
71436;SHT31;59251;51.326;12.370;2023-04-23T12:38:53;23.74;44.66
71436;SHT31;59251;51.326;12.370;2023-04-23T12:41:19;23.62;44.77
71436;SHT31;59251;51.326;12.370;2023-04-23T12:43:44;24.22;44.05
71436;SHT31;59251;51.326;12.370;2023-04-23T12:46:13;24.09;43.43
71436;SHT31;59251;51.326;12.370;2023-04-23T12:48:38;25.03;40.27
71436;SHT31;59251;51.326;12.370;2023-04-23T12:51:04;25.43;40.14
71436;SHT31;59251;51.326;12.370;2023-04-23T12:53:30;24.41;41.87
71436;SHT31;59251;51.326;12.370;2023-04-23T12:55:56;25.05;41.65
71436;SHT31;59251;51.326;12.370;2023-04-23T12:58:21;25.52;40.69
71436;SHT31;59251;51.326;12.370;2023-04-23T13:00:47;25.49;40.59
71436;SHT31;59251;51.326;12.370;2023-04-23T13:03:12;25.79;39.51
71436;SHT31;59251;51.326;12.370;2023-04-23T13:05:40;25.15;41.14
71436;SHT31;59251;51.326;12.370;2023-04-23T13:08:05;23.36;43.81
71436;SHT31;59251;51.326;12.370;2023-04-23T13:10:30;24.49;42.40
71436;SHT31;59251;51.326;12.370;2023-04-23T13:12:56;25.21;41.49
71436;SHT31;59251;51.326;12.370;2023-04-23T13:15:22;26.39;39.19
71436;SHT31;59251;51.326;12.370;2023-04-23T13:17:47;26.85;39.30
71436;SHT31;59251;51.326;12.370;2023-04-23T13:20:12;25.67;41.14
71436;SHT31;59251;51.326;12.370;2023-04-23T13:22:38;25.70;40.31
71436;SHT31;59251;51.326;12.370;2023-04-23T13:25:03;26.45;38.56
71436;SHT31;59251;51.326;12.370;2023-04-23T13:27:29;27.50;37.77
71436;SHT31;59251;51.326;12.370;2023-04-23T13:29:55;27.45;36.84
71436;SHT31;59251;51.326;12.370;2023-04-23T13:32:21;26.90;37.72
71436;SHT31;59251;51.326;12.370;2023-04-23T13:34:48;27.02;37.45
71436;SHT31;59251;51.326;12.370;2023-04-23T13:37:13;27.66;37.58
71436;SHT31;59251;51.326;12.370;2023-04-23T13:39:39;27.34;37.84
71436;SHT31;59251;51.326;12.370;2023-04-23T13:42:04;26.89;38.06
71436;SHT31;59251;51.326;12.370;2023-04-23T13:44:30;27.17;38.22
71436;SHT31;59251;51.326;12.370;2023-04-23T13:46:56;26.93;38.13
71436;SHT31;59251;51.326;12.370;2023-04-23T13:49:23;26.80;38.15
71436;SHT31;59251;51.326;12.370;2023-04-23T13:51:49;26.73;38.54
71436;SHT31;59251;51.326;12.370;2023-04-23T13:54:15;25.86;39.74
71436;SHT31;59251;51.326;12.370;2023-04-23T13:56:40;26.48;38.10
71436;SHT31;59251;51.326;12.370;2023-04-23T13:59:05;26.93;37.85
71436;SHT31;59251;51.326;12.370;2023-04-23T14:01:31;26.56;37.70
71436;SHT31;59251;51.326;12.370;2023-04-23T14:03:56;24.85;40.31
71436;SHT31;59251;51.326;12.370;2023-04-23T14:06:22;25.90;39.60
71436;SHT31;59251;51.326;12.370;2023-04-23T14:08:47;26.76;38.25
71436;SHT31;59251;51.326;12.370;2023-04-23T14:11:13;27.33;37.41
71436;SHT31;59251;51.326;12.370;2023-04-23T14:13:38;27.86;36.12
71436;SHT31;59251;51.326;12.370;2023-04-23T14:16:03;27.91;36.97
71436;SHT31;59251;51.326;12.370;2023-04-23T14:18:29;27.73;36.16
71436;SHT31;59251;51.326;12.370;2023-04-23T14:20:54;28.50;35.95
71436;SHT31;59251;51.326;12.370;2023-04-23T14:25:56;28.85;35.20
71436;SHT31;59251;51.326;12.370;2023-04-23T14:28:28;28.05;36.15
71436;SHT31;59251;51.326;12.370;2023-04-23T14:30:55;27.35;37.60
71436;SHT31;59251;51.326;12.370;2023-04-23T14:33:21;27.93;36.84
71436;SHT31;59251;51.326;12.370;2023-04-23T14:35:46;28.85;36.45
71436;SHT31;59251;51.326;12.370;2023-04-23T14:38:12;28.29;36.56
71436;SHT31;59251;51.326;12.370;2023-04-23T14:40:37;29.02;35.11
71436;SHT31;59251;51.326;12.370;2023-04-23T14:43:03;28.98;35.72
71436;SHT31;59251;51.326;12.370;2023-04-23T14:45:28;28.41;36.44
71436;SHT31;59251;51.326;12.370;2023-04-23T14:47:55;28.27;36.38
71436;SHT31;59251;51.326;12.370;2023-04-23T14:50:21;27.48;37.76
71436;SHT31;59251;51.326;12.370;2023-04-23T14:52:47;28.74;36.22
71436;SHT31;59251;51.326;12.370;2023-04-23T14:55:13;27.80;37.84
71436;SHT31;59251;51.326;12.370;2023-04-23T14:57:38;27.68;37.49
71436;SHT31;59251;51.326;12.370;2023-04-23T15:00:05;25.79;38.77
71436;SHT31;59251;51.326;12.370;2023-04-23T15:02:32;26.63;38.38
71436;SHT31;59251;51.326;12.370;2023-04-23T15:04:58;26.86;37.68
71436;SHT31;59251;51.326;12.370;2023-04-23T15:07:24;25.59;39.62
71436;SHT31;59251;51.326;12.370;2023-04-23T15:09:50;24.10;41.18
71436;SHT31;59251;51.326;12.370;2023-04-23T15:15:03;24.87;41.34
71436;SHT31;59251;51.326;12.370;2023-04-23T15:17:28;24.36;41.55
71436;SHT31;59251;51.326;12.370;2023-04-23T15:19:54;24.46;41.64
71436;SHT31;59251;51.326;12.370;2023-04-23T15:22:21;23.77;42.99